M I D A S
Marine Information and Data Acquisition System
Tripno 231 of the Zeeleeuw from 2002-03-28 06:57:56 to 2002-03-28 13:16:46
Back to CruiseResearch ActivitiesStationsMapUnderway DataData graphs

EquipmentUnitsComment
TimeDGPSUTC
LatitudeDGPSDM.mWGS84
LongitudeDGPSDM.mWGS84
HeadingGyrodeg 
SOGDGPSknotsSpeed over ground
COGDGPSdegCourse over ground
DepthEcho soundermeters200 kHz
Missing or incorrect values are displayed as -999
Navigation data collected by the RV Zeeleeuw from 2002-03-28 06:57:56 to 2002-03-28 13:16:46
                                                                                    Next 1000 lines
Time Latitude Longitude Heading SOG COG Depth
2002-03-28 06:59:16 51°13.691 2°55.907 0.2 0.1 2.7 -999
2002-03-28 06:59:21 51°13.692 2°55.907 0.2 0.1 5.1 -999
2002-03-28 06:59:26 51°13.692 2°55.908 0.2 0.2 8.1 -999
2002-03-28 06:59:30 51°13.692 2°55.908 0.2 0.2 6 -999
2002-03-28 06:59:35 51°13.689 2°55.907 0.2 0.1 5.6 -999
2002-03-28 06:59:40 51°13.689 2°55.907 0.2 0.1 7.3 -999
2002-03-28 06:59:45 51°13.689 2°55.907 0.2   207.5 -999
2002-03-28 06:59:50 51°13.689 2°55.907 0.2   226.5 -999
2002-03-28 06:59:55 51°13.688 2°55.907 0.2   304.5 -999
2002-03-28 07:00:00 51°13.688 2°55.906 0.2   284.5 -999
2002-03-28 07:00:05 51°13.687 2°55.906 0.2   221.1 -999
2002-03-28 07:00:09 51°13.687 2°55.906 0.2   238.8 -999
2002-03-28 07:00:15 51°13.687 2°55.906 0.2   6.6 -999
2002-03-28 07:00:20 51°13.687 2°55.906 0.2   3.7 -999
2002-03-28 07:00:25 51°13.687 2°55.905 0.2   343.5 -999
2002-03-28 07:00:30 51°13.687 2°55.905 0.2   341.1 -999
2002-03-28 07:00:35 51°13.688 2°55.906 0.2   1.9 -999
2002-03-28 07:00:40 51°13.688 2°55.906 0.2   357.4 -999
2002-03-28 07:00:45 51°13.688 2°55.906 0.2   312.1 -999
2002-03-28 07:00:49 51°13.688 2°55.906 0.2   20.3 -999
2002-03-28 07:00:55 51°13.688 2°55.906 0.2   74 -999
2002-03-28 07:01:00 51°13.688 2°55.906 0.2   60.8 -999
2002-03-28 07:01:05 51°13.688 2°55.906 0.2   3.7 -999
2002-03-28 07:01:09 51°13.688 2°55.907 0.2   3.1 -999
2002-03-28 07:01:15 51°13.688 2°55.907 0.2   19.5 -999
2002-03-28 07:01:19 51°13.688 2°55.907 0.2   13.5 -999
2002-03-28 07:01:25 51°13.689 2°55.907 0.2   340.2 -999
2002-03-28 07:01:30 51°13.689 2°55.907 0.2   337.1 -999
2002-03-28 07:01:35 51°13.689 2°55.907 13.3   343.9 -999
2002-03-28 07:01:40 51°13.689 2°55.907 51.7   351.4 -999
2002-03-28 07:01:45 51°13.689 2°55.907 93   343.3 -999
2002-03-28 07:01:49 51°13.689 2°55.906 125.3   320.7 -999
2002-03-28 07:01:55 51°13.689 2°55.906 130.8   7.4 -999
2002-03-28 07:02:00 51°13.689 2°55.906 129.7   29.5 -999
2002-03-28 07:02:05 51°13.689 2°55.906 129.3   24.2 -999
2002-03-28 07:02:10 51°13.689 2°55.906 129.3   2.4 -999
2002-03-28 07:02:15 51°13.689 2°55.906 129.3   8.3 -999
2002-03-28 07:02:19 51°13.689 2°55.906 129.3   25.1 -999
2002-03-28 07:02:25 51°13.689 2°55.906 129.3   22.9 -999
2002-03-28 07:02:30 51°13.689 2°55.906 129.5   41.1 -999
2002-03-28 07:02:35 51°13.689 2°55.906 129.5   98.8 -999
2002-03-28 07:02:40 51°13.688 2°55.906 129.5   196.2 -999
2002-03-28 07:02:45 51°13.688 2°55.906 129.5   253.8 -999
2002-03-28 07:02:50 51°13.688 2°55.906 129.5   325 -999
2002-03-28 07:02:55 51°13.688 2°55.906 129.5   328.4 -999
2002-03-28 07:03:00 51°13.688 2°55.906 129.5   326.6 -999
2002-03-28 07:03:05 51°13.688 2°55.906 129.5   322.5 -999
2002-03-28 07:03:10 51°13.688 2°55.906 129.5   324.4 -999
2002-03-28 07:03:15 51°13.688 2°55.906 129.5   354.5 -999
2002-03-28 07:03:20 51°13.688 2°55.906 129.5   10.9 -999
2002-03-28 07:03:25 51°13.688 2°55.906 129.5   20.2 -999
2002-03-28 07:03:29 51°13.688 2°55.906 129.5   5.2 -999
2002-03-28 07:03:35 51°13.688 2°55.906 129.5   320 -999
2002-03-28 07:03:40 51°13.688 2°55.906 129.5   351.7 -999
2002-03-28 07:03:45 51°13.688 2°55.906 129.5   12.2 -999
2002-03-28 07:03:50 51°13.688 2°55.906 129.5   283 -999
2002-03-28 07:03:55 51°13.688 2°55.906 129.5   268.3 -999
2002-03-28 07:04:00 51°13.688 2°55.906 129.5   315.6 -999
2002-03-28 07:04:05 51°13.688 2°55.906 129.5   1.2 6.7
2002-03-28 07:04:08 51°13.688 2°55.906 129.5   13.5 6.7
2002-03-28 07:04:11 51°13.688 2°55.906 129.5   16.6 6.7
2002-03-28 07:04:15 51°13.688 2°55.906 129.5   21.8 6.7
2002-03-28 07:04:19 51°13.688 2°55.906 129.5   342.3 6.7
2002-03-28 07:04:25 51°13.688 2°55.906 129.5   293.5 6.7
2002-03-28 07:04:30 51°13.688 2°55.906 129.5   29.4 6.7
2002-03-28 07:04:35 51°13.688 2°55.906 129.5   56 6.7
2002-03-28 07:04:41 51°13.688 2°55.906 129.5   338.4 6.7
2002-03-28 07:04:45 51°13.688 2°55.906 129.5   40.2 -999
2002-03-28 07:04:51 51°13.688 2°55.906 129.5   20.8 6.7
2002-03-28 07:04:55 51°13.688 2°55.906 129.5   354.7 6.7
2002-03-28 07:05:00 51°13.688 2°55.906 129.5   159.7 6.7
2002-03-28 07:05:05 51°13.688 2°55.906 129.5   189.9 6.7
2002-03-28 07:05:09 51°13.688 2°55.906 129.5   244.9 6.7
2002-03-28 07:05:15 51°13.688 2°55.906 129.5   307.5 6.7
2002-03-28 07:05:19 51°13.688 2°55.906 129.5   318.4 6.7
2002-03-28 07:05:25 51°13.688 2°55.906 129.5   295.3 6.7
2002-03-28 07:05:31 51°13.688 2°55.906 129.5   38.1 6.7
2002-03-28 07:05:35 51°13.688 2°55.906 129.5   45.7 6.7
2002-03-28 07:05:40 51°13.688 2°55.906 129.5   48.2 6.7
2002-03-28 07:05:45 51°13.688 2°55.906 129.5   324.4 6.4
2002-03-28 07:05:50 51°13.688 2°55.906 129.5   315.2 6.7
2002-03-28 07:05:55 51°13.688 2°55.906 129.5   314.7 6.7
2002-03-28 07:06:00 51°13.688 2°55.906 129.5   317 6.7
2002-03-28 07:06:05 51°13.688 2°55.906 129.5   351.5 6.7
2002-03-28 07:06:10 51°13.688 2°55.906 129.5   16.8 6.7
2002-03-28 07:06:15 51°13.688 2°55.906 129.5   354 6.7
2002-03-28 07:06:20 51°13.688 2°55.906 129.5   317.5 6.7
2002-03-28 07:06:25 51°13.688 2°55.907 129.5   341.1 6.7
2002-03-28 07:06:29 51°13.688 2°55.907 129.5   1.3 6.8
2002-03-28 07:06:35 51°13.688 2°55.906 129.5   22.6 6.8
2002-03-28 07:06:40 51°13.688 2°55.906 129.5   287.6 6.8
2002-03-28 07:06:45 51°13.689 2°55.906 129.5   308.9 6.8
2002-03-28 07:06:49 51°13.689 2°55.906 129.5   309.8 6.8
2002-03-28 07:06:55 51°13.689 2°55.906 129.5   314.9 6.7
2002-03-28 07:07:00 51°13.689 2°55.907 129.5   305.9 6.7
2002-03-28 07:07:05 51°13.689 2°55.907 129.5   41.9 6.8
2002-03-28 07:07:11 51°13.689 2°55.907 129.5   292.6 6.8
2002-03-28 07:07:15 51°13.689 2°55.907 129.5   337.8 6.8
2002-03-28 07:07:20 51°13.689 2°55.907 129.5   11.2 6.8
2002-03-28 07:07:25 51°13.689 2°55.907 129.5   1 6.8
2002-03-28 07:07:29 51°13.689 2°55.907 129.5   340 6.7
2002-03-28 07:07:35 51°13.689 2°55.906 129.5   322.8 6.8
2002-03-28 07:07:40 51°13.689 2°55.906 129.5   344.5 6.7
2002-03-28 07:07:45 51°13.689 2°55.906 129.5   14.4 6.8
2002-03-28 07:07:50 51°13.689 2°55.907 129.5   75.5 6.8
2002-03-28 07:07:55 51°13.689 2°55.906 129.5   71.4 6.8
2002-03-28 07:08:00 51°13.689 2°55.906 129.5   339.8 6.8
2002-03-28 07:08:05 51°13.689 2°55.906 129.5   303.9 6.8
2002-03-28 07:08:10 51°13.689 2°55.906 129.5   308.7 6.8
2002-03-28 07:08:15 51°13.689 2°55.907 129.5   346.9 6.8
2002-03-28 07:08:20 51°13.689 2°55.907 129.5   81.6 6.7
2002-03-28 07:08:25 51°13.689 2°55.906 129.5   84.4 6.6
2002-03-28 07:08:30 51°13.689 2°55.906 129.5   1.9 6.8
2002-03-28 07:08:35 51°13.689 2°55.906 129.5   298.3 6.8
2002-03-28 07:08:40 51°13.689 2°55.906 129.5   278.8 6.8
2002-03-28 07:08:45 51°13.689 2°55.906 129.5   32.8 6.8
2002-03-28 07:08:50 51°13.689 2°55.906 129.5   30.3 6.8
2002-03-28 07:08:55 51°13.689 2°55.906 129.5   37.1 6.7
2002-03-28 07:09:00 51°13.689 2°55.906 129.5   24.9 6.8
2002-03-28 07:09:05 51°13.689 2°55.906 129.5   17.9 6.7
2002-03-28 07:09:09 51°13.688 2°55.906 129.5   30.3 6.6
2002-03-28 07:09:15 51°13.688 2°55.906 129.5   40 6.8
2002-03-28 07:09:20 51°13.688 2°55.906 129.5   52.2 6.3
2002-03-28 07:09:25 51°13.687 2°55.905 129.5   10 6.4
2002-03-28 07:09:30 51°13.687 2°55.906 129.5   7.7 6.8
2002-03-28 07:09:35 51°13.688 2°55.906 129.5   19.5 6.8
2002-03-28 07:09:40 51°13.688 2°55.906 129.5   16.9 6.8
2002-03-28 07:09:45 51°13.689 2°55.906 129.5   24.6 6.8
2002-03-28 07:09:50 51°13.689 2°55.906 129.3   312 6.8
2002-03-28 07:09:55 51°13.689 2°55.906 129.3   323.7 6.8
2002-03-28 07:10:00 51°13.689 2°55.906 129.3   28.9 6.8
2002-03-28 07:10:05 51°13.689 2°55.906 129.3   38.1 6.8
2002-03-28 07:10:10 51°13.689 2°55.906 129.3   41.2 6.8
2002-03-28 07:10:15 51°13.689 2°55.906 129.3   8.2 6.7
2002-03-28 07:10:19 51°13.689 2°55.906 129.3   347.4 6.8
2002-03-28 07:10:25 51°13.689 2°55.906 129.3   313.9 6.8
2002-03-28 07:10:30 51°13.689 2°55.906 129.3   56.1 6.5
2002-03-28 07:10:35 51°13.688 2°55.905 129.3   39.9 6.7
2002-03-28 07:10:40 51°13.687 2°55.905 129.3   325.5 6.8
2002-03-28 07:10:45 51°13.687 2°55.905 129.3   320.2 6.8
2002-03-28 07:10:49 51°13.688 2°55.905 129.3   341 6.8
2002-03-28 07:10:55 51°13.688 2°55.905 129.3   277.3 6.8
2002-03-28 07:11:00 51°13.688 2°55.905 129.3   37.2 6.8
2002-03-28 07:11:05 51°13.688 2°55.905 129.3   32.8 6.8
2002-03-28 07:11:11 51°13.688 2°55.905 129.3   336.7 -999
2002-03-28 07:11:15 51°13.688 2°55.905 129.3   15 6.7
2002-03-28 07:11:21 51°13.689 2°55.905 129.3   69.7 6.8
2002-03-28 07:11:25 51°13.689 2°55.905 129.3   348.9 6.8
2002-03-28 07:11:31 51°13.689 2°55.905 129.3   352.3 6.8
2002-03-28 07:11:35 51°13.689 2°55.905 129.3 0.1 19.5 6.8
2002-03-28 07:11:40 51°13.689 2°55.905 129.3 0.1 46.6 6.8
2002-03-28 07:11:45 51°13.689 2°55.905 129.3 0.1 39 6.8
2002-03-28 07:11:50 51°13.689 2°55.906 129.3   0.4 6.8
2002-03-28 07:11:55 51°13.69 2°55.906 129.3   301.9 6.8
2002-03-28 07:12:01 51°13.69 2°55.906 129.3   17 6.8
2002-03-28 07:12:05 51°13.69 2°55.906 129.3   56.7 6.8
2002-03-28 07:12:10 51°13.69 2°55.906 129.3   57.2 6.8
2002-03-28 07:12:15 51°13.69 2°55.906 129.3   80.8 6.8
2002-03-28 07:12:20 51°13.69 2°55.906 129.3   40.6 6.8
2002-03-28 07:12:25 51°13.69 2°55.906 129.3   286.1 6.8
2002-03-28 07:12:30 51°13.69 2°55.906 129.3   316.2 6.8
2002-03-28 07:12:35 51°13.691 2°55.906 129.3   299.8 6.8
2002-03-28 07:12:40 51°13.691 2°55.906 129.3   305.1 6.8
2002-03-28 07:12:45 51°13.689 2°55.906 129.3   325.3 6.8
2002-03-28 07:12:51 51°13.689 2°55.905 129.3   1.8 6.8
2002-03-28 07:12:55 51°13.688 2°55.905 129.3   2.1 6.8
2002-03-28 07:13:00 51°13.689 2°55.906 129.3   10.4 6.8
2002-03-28 07:13:05 51°13.69 2°55.907 129.3   341.9 6.8
2002-03-28 07:13:09 51°13.691 2°55.907 129.3   317.1 6.8
2002-03-28 07:13:15 51°13.691 2°55.907 129.3   336.7 6.8
2002-03-28 07:13:20 51°13.691 2°55.907 129.3   60.8 6.8
2002-03-28 07:13:25 51°13.691 2°55.907 129.3   182.2 6.8
2002-03-28 07:13:30 51°13.691 2°55.907 129.3   118.8 6.8
2002-03-28 07:13:35 51°13.691 2°55.907 129.3   46.7 6.8
2002-03-28 07:13:40 51°13.691 2°55.907 129.3   356.4 6.8
2002-03-28 07:13:45 51°13.691 2°55.907 129.3   297.6 6.8
2002-03-28 07:13:50 51°13.691 2°55.907 129.3   265.5 6.8
2002-03-28 07:13:55 51°13.691 2°55.907 129.3   281.9 6.8
2002-03-28 07:14:01 51°13.691 2°55.907 129.3   284 6.8
2002-03-28 07:14:05 51°13.691 2°55.907 129.3   296.2 6.7
2002-03-28 07:14:11 51°13.691 2°55.907 129.3   356.7 6.7
2002-03-28 07:14:15 51°13.691 2°55.908 129.3   34.2 6.8
2002-03-28 07:14:20 51°13.691 2°55.908 129.3   32.9 6.8
2002-03-28 07:14:25 51°13.69 2°55.907 129.3   14.2 6.8
2002-03-28 07:14:30 51°13.69 2°55.907 129.3   32.9 6.8
2002-03-28 07:14:35 51°13.689 2°55.907 129.3   2.1 6.8
2002-03-28 07:14:41 51°13.689 2°55.907 129.3   342.5 6.8
2002-03-28 07:14:45 51°13.689 2°55.907 129.3   355 6.8
2002-03-28 07:14:51 51°13.689 2°55.906 129.3   214.1 6.8
2002-03-28 07:14:55 51°13.689 2°55.907 129.3   318.5 6.8
2002-03-28 07:15:01 51°13.689 2°55.906 129.3   330.7 6.8
2002-03-28 07:15:05 51°13.689 2°55.906 129.3   290.4 6.8
2002-03-28 07:15:09 51°13.689 2°55.906 129.3   226.5 6.9
2002-03-28 07:15:15 51°13.689 2°55.906 129.3   130.8 6.8
2002-03-28 07:15:21 51°13.69 2°55.906 129.3 0.1 55.2 6.8
2002-03-28 07:15:25 51°13.69 2°55.906 129.3 0.1 44.7 6.9
2002-03-28 07:15:29 51°13.69 2°55.906 129.3   39.8 6.9
2002-03-28 07:15:35 51°13.69 2°55.906 129.3   5.5 6.9
2002-03-28 07:15:39 51°13.69 2°55.906 129.3   287.8 6.9
2002-03-28 07:15:45 51°13.69 2°55.906 129.3   294 6.9
2002-03-28 07:15:50 51°13.69 2°55.906 129.3   26.9 6.9
2002-03-28 07:15:55 51°13.689 2°55.905 129.3   32.6 6.8
2002-03-28 07:16:01 51°13.688 2°55.905 129.3   49.3 6.8
2002-03-28 07:16:05 51°13.688 2°55.905 129.3   11.2 6.9
2002-03-28 07:16:09 51°13.689 2°55.905 129.3   302.4 6.8
2002-03-28 07:16:15 51°13.689 2°55.905 129.3   289.3 6.8
2002-03-28 07:16:20 51°13.689 2°55.905 129.3   283.6 6.8
2002-03-28 07:16:25 51°13.689 2°55.905 129.3   54.7 6.9
2002-03-28 07:16:30 51°13.689 2°55.905 129.3   75.3 6.9
2002-03-28 07:16:35 51°13.688 2°55.905 129.3   19.2 6.9
2002-03-28 07:16:39 51°13.688 2°55.905 129.3   61.6 6.9
2002-03-28 07:16:45 51°13.688 2°55.905 129.3   49.6 6.9
2002-03-28 07:16:50 51°13.689 2°55.905 129.3   2.7 6.9
2002-03-28 07:16:55 51°13.689 2°55.905 129.3   15.3 6.9
2002-03-28 07:16:59 51°13.689 2°55.905 129.3   264.3 6.9
2002-03-28 07:17:05 51°13.689 2°55.905 129.3   46.8 6.9
2002-03-28 07:17:09 51°13.689 2°55.905 129.3   41.2 6.9
2002-03-28 07:17:15 51°13.689 2°55.906 129.3   114.1 6.9
2002-03-28 07:17:20 51°13.689 2°55.905 129.3   271.5 6.9
2002-03-28 07:17:25 51°13.689 2°55.905 129.3   283.8 6.9
2002-03-28 07:17:30 51°13.689 2°55.905 129.3   298.8 6.9
2002-03-28 07:17:35 51°13.689 2°55.906 129.3   335.9 6.9
2002-03-28 07:17:40 51°13.689 2°55.906 129.3   44.3 6.9
2002-03-28 07:17:45 51°13.689 2°55.906 129.3   65.4 6.9
2002-03-28 07:17:51 51°13.689 2°55.906 129.3   75.6 6.9
2002-03-28 07:17:55 51°13.689 2°55.906 129.3   71.3 6.9
2002-03-28 07:18:00 51°13.689 2°55.906 129.3   35.3 6.9
2002-03-28 07:18:05 51°13.689 2°55.906 129.3   59.7 6.9
2002-03-28 07:18:09 51°13.689 2°55.906 129.3   59.9 6.9
2002-03-28 07:18:15 51°13.69 2°55.906 129.3   10.6 6.9
2002-03-28 07:18:20 51°13.69 2°55.906 129.3   310.3 6.9
2002-03-28 07:18:25 51°13.69 2°55.906 129.3   342.5 6.9
2002-03-28 07:18:30 51°13.69 2°55.906 129.3   294 6.8
2002-03-28 07:18:35 51°13.69 2°55.906 129.3   306.2 6.9
2002-03-28 07:18:39 51°13.69 2°55.906 129.3   339.1 6.9
2002-03-28 07:18:45 51°13.69 2°55.906 129.3   352.3 6.8
2002-03-28 07:18:51 51°13.69 2°55.906 129.3 0.1 13.4 6.9
2002-03-28 07:18:55 51°13.69 2°55.906 129.3 0.1 20.6 6.7
2002-03-28 07:18:59 51°13.69 2°55.906 129.3 0.1 13 6.8
2002-03-28 07:19:05 51°13.69 2°55.906 129.3   352.4 6.7
2002-03-28 07:19:09 51°13.69 2°55.906 129.3   348.9 6.6
2002-03-28 07:19:15 51°13.69 2°55.907 129.3   14.1 6.6
2002-03-28 07:19:21 51°13.69 2°55.907 129.3 0.1 20.5 6.9
2002-03-28 07:19:25 51°13.69 2°55.907 129.3   15.4 6.9
2002-03-28 07:19:30 51°13.69 2°55.907 129.3   1.5 6.9
2002-03-28 07:19:35 51°13.69 2°55.906 129.3   290.8 6.9
2002-03-28 07:19:40 51°13.69 2°55.907 129.3   265.6 6.9
2002-03-28 07:19:45 51°13.69 2°55.907 129.3   215.6 6.9
2002-03-28 07:19:50 51°13.69 2°55.907 129.3   67.5 6.9
2002-03-28 07:19:55 51°13.69 2°55.907 129.3   33.9 6.9
2002-03-28 07:20:01 51°13.69 2°55.907 129.3   53 6.9
2002-03-28 07:20:05 51°13.69 2°55.906 129.3   29.5 6.9
2002-03-28 07:20:11 51°13.69 2°55.907 129.3   227.1 6.9
2002-03-28 07:20:15 51°13.69 2°55.906 129.3   237.7 6.9
2002-03-28 07:20:20 51°13.69 2°55.907 129.3   30 6.9
2002-03-28 07:20:25 51°13.69 2°55.907 129.3   39 6.9
2002-03-28 07:20:31 51°13.69 2°55.907 129.3   32.8 6.9
2002-03-28 07:20:35 51°13.69 2°55.907 129.3   6.2 6.9
2002-03-28 07:20:41 51°13.69 2°55.907 129.3   343.3 6.9
2002-03-28 07:20:45 51°13.69 2°55.907 129.3   348.5 6.9
2002-03-28 07:20:50 51°13.69 2°55.907 129.3   353.1 6.9
2002-03-28 07:20:55 51°13.69 2°55.907 129.3   357 6.9
2002-03-28 07:21:00 51°13.69 2°55.907 129.3   46.1 6.9
2002-03-28 07:21:05 51°13.69 2°55.907 129.3   0.2 6.9
2002-03-28 07:21:11 51°13.69 2°55.907 129.3   53.1 6.9
2002-03-28 07:21:15 51°13.69 2°55.907 129.3   98.1 6.9
2002-03-28 07:21:21 51°13.69 2°55.907 129.3   243.8 6.9
2002-03-28 07:21:25 51°13.691 2°55.907 129.3   320.1 7
2002-03-28 07:21:29 51°13.691 2°55.907 129.3   8.6 6.9
2002-03-28 07:21:35 51°13.691 2°55.907 129.3   23 6.9
2002-03-28 07:21:40 51°13.691 2°55.907 129.3   284 6.9
2002-03-28 07:21:45 51°13.691 2°55.907 129.3   310.9 6.9
2002-03-28 07:21:50 51°13.691 2°55.907 129.3   71.8 6.9
2002-03-28 07:21:55 51°13.691 2°55.907 129.3   73.3 6.9
2002-03-28 07:22:00 51°13.691 2°55.907 129.3   72.3 6.9
2002-03-28 07:22:05 51°13.691 2°55.907 129.3   87.7 7
2002-03-28 07:22:10 51°13.691 2°55.907 129.3   278.7 7
2002-03-28 07:22:15 51°13.691 2°55.907 129.3   277.2 7
2002-03-28 07:22:20 51°13.691 2°55.907 129.3   277.2 7
2002-03-28 07:22:25 51°13.691 2°55.907 129.3   324.7 7
2002-03-28 07:22:30 51°13.691 2°55.907 129.3   41.8 7
2002-03-28 07:22:35 51°13.691 2°55.907 129.3   55.5 7
2002-03-28 07:22:39 51°13.691 2°55.907 129.3   136 7
2002-03-28 07:22:45 51°13.691 2°55.907 129.3   238.5 7
2002-03-28 07:22:51 51°13.691 2°55.907 129.3   261.8 7
2002-03-28 07:22:55 51°13.691 2°55.907 129.3   275.6 7
2002-03-28 07:23:00 51°13.691 2°55.907 129.3   280.4 7
2002-03-28 07:23:05 51°13.691 2°55.907 129.3   307.3 7
2002-03-28 07:23:09 51°13.691 2°55.907 129.3   43.4 7
2002-03-28 07:23:15 51°13.691 2°55.907 129.3   70.7 7
2002-03-28 07:23:20 51°13.691 2°55.907 129.3   263.5 7
2002-03-28 07:23:25 51°13.691 2°55.907 129.3   3 7
2002-03-28 07:23:31 51°13.689 2°55.907 129.3   238.2 7
2002-03-28 07:23:35 51°13.689 2°55.907 129.3   240 -999
2002-03-28 07:23:40 51°13.689 2°55.907 129.3   326.8 6.6
2002-03-28 07:23:45 51°13.689 2°55.907 129.3   26.4 6.5
2002-03-28 07:23:50 51°13.688 2°55.907 129.3   8.3 7
2002-03-28 07:23:55 51°13.688 2°55.907 129.3   11.4 7
2002-03-28 07:24:00 51°13.688 2°55.907 129.3   34.6 7
2002-03-28 07:24:05 51°13.688 2°55.906 129.3   19.4 7
2002-03-28 07:24:11 51°13.688 2°55.907 129.3   222 6.9
2002-03-28 07:24:15 51°13.688 2°55.907 129.3   92.3 6.9
2002-03-28 07:24:21 51°13.688 2°55.906 129.3   347.9 7
2002-03-28 07:24:25 51°13.688 2°55.906 129.3   353.9 7
2002-03-28 07:24:31 51°13.688 2°55.906 129.3   15.9 6.7
2002-03-28 07:24:35 51°13.688 2°55.906 129.3   2.5 6.6
2002-03-28 07:24:40 51°13.688 2°55.906 129.3   319.5 6.6
2002-03-28 07:24:45 51°13.688 2°55.906 129.3   40.4 6.6
2002-03-28 07:24:51 51°13.688 2°55.906 129.3   49.4 6.6
2002-03-28 07:24:55 51°13.688 2°55.906 129.3   33.6 6.6
2002-03-28 07:25:01 51°13.688 2°55.906 129.3   356.1 6.6
2002-03-28 07:25:05 51°13.688 2°55.906 129.3   351.9 6.6
2002-03-28 07:25:11 51°13.688 2°55.906 129.3   26.6 6.6
2002-03-28 07:25:15 51°13.687 2°55.906 129.3   27.9 6.7
2002-03-28 07:25:21 51°13.687 2°55.906 129.3   40.3 7
2002-03-28 07:25:26 51°13.687 2°55.906 129.3   33.9 7
2002-03-28 07:25:31 51°13.687 2°55.906 129.3   23 7
2002-03-28 07:25:36 51°13.687 2°55.906 129.3   13.4 7
2002-03-28 07:25:41 51°13.687 2°55.906 129.3   352.8 7
2002-03-28 07:25:46 51°13.687 2°55.906 129.3   343.2 7
2002-03-28 07:25:51 51°13.687 2°55.906 129.2   282.9 7
2002-03-28 07:25:56 51°13.687 2°55.906 129.2   27.3 7
2002-03-28 07:26:01 51°13.687 2°55.906 129.2   40 7
2002-03-28 07:26:06 51°13.687 2°55.906 129.2   27.4 7
2002-03-28 07:26:11 51°13.687 2°55.906 129.2   351.7 7
2002-03-28 07:26:16 51°13.687 2°55.906 129.2   330.7 7
2002-03-28 07:26:21 51°13.687 2°55.906 129.2   358.5 7
2002-03-28 07:26:26 51°13.687 2°55.906 129.2   17.9 7
2002-03-28 07:26:31 51°13.687 2°55.906 129.2   27.2 6.9
2002-03-28 07:26:36 51°13.687 2°55.906 129.2   33.7 7
2002-03-28 07:26:41 51°13.687 2°55.906 129.2   23.1 7
2002-03-28 07:26:46 51°13.687 2°55.906 129.2   21 7
2002-03-28 07:26:51 51°13.687 2°55.906 129.2   32.3 7
2002-03-28 07:26:55 51°13.687 2°55.906 129.2   17.4 6.9
2002-03-28 07:27:01 51°13.687 2°55.906 129.2   22 7
2002-03-28 07:27:05 51°13.688 2°55.907 129.2   8.6 7
2002-03-28 07:27:09 51°13.688 2°55.907 129.2   315.6 7
2002-03-28 07:27:15 51°13.689 2°55.907 129.2   0.9 7
2002-03-28 07:27:20 51°13.688 2°55.907 129.2   8.3 7
2002-03-28 07:27:24 51°13.688 2°55.907 129.2   309.2 7
2002-03-28 07:27:29 51°13.688 2°55.907 129.2   264.1 7
2002-03-28 07:27:36 51°13.688 2°55.906 129.2   284.8 7
2002-03-28 07:27:42 51°13.688 2°55.906 129.2   359.6 7
2002-03-28 07:27:46 51°13.688 2°55.906 129.2   322.9 7
2002-03-28 07:27:51 51°13.688 2°55.906 129.2   304.9 6.9
2002-03-28 07:27:56 51°13.688 2°55.906 129.2   331.9 7
2002-03-28 07:28:01 51°13.688 2°55.906 129.2   327.4 6.9
2002-03-28 07:28:05 51°13.688 2°55.906 129.3   345.1 7
2002-03-28 07:28:10 51°13.688 2°55.906 129.3   345.7 7
2002-03-28 07:28:16 51°13.688 2°55.906 129.3   323.8 7
2002-03-28 07:28:20 51°13.688 2°55.906 129.3   297.7 7
2002-03-28 07:28:25 51°13.688 2°55.906 129.3   320.6 6.8
2002-03-28 07:28:31 51°13.688 2°55.906 129.3   41.7 7
2002-03-28 07:28:36 51°13.688 2°55.906 129.3   347.3 7
2002-03-28 07:28:42 51°13.688 2°55.906 129.3   12.6 7
2002-03-28 07:28:46 51°13.688 2°55.906 129.3   20.8 7
2002-03-28 07:28:52 51°13.688 2°55.906 129.3   30.3 7
2002-03-28 07:28:56 51°13.688 2°55.906 129.3   19.8 7
2002-03-28 07:29:00 51°13.688 2°55.906 129.3   12.7 7
2002-03-28 07:29:05 51°13.688 2°55.907 129.3   24 7
2002-03-28 07:29:10 51°13.689 2°55.907 129.3   53.5 7
2002-03-28 07:29:15 51°13.689 2°55.907 129.3   67.6 7
2002-03-28 07:29:20 51°13.689 2°55.907 129.2   87.4 7
2002-03-28 07:29:25 51°13.689 2°55.907 129.2   221.7 7
2002-03-28 07:29:31 51°13.689 2°55.907 129.2   79.3 7
2002-03-28 07:29:36 51°13.689 2°55.907 129.2   50.1 7
2002-03-28 07:29:41 51°13.689 2°55.907 129.2   54.3 7.1
2002-03-28 07:29:46 51°13.688 2°55.906 129.2   40.3 7.1
2002-03-28 07:29:50 51°13.688 2°55.906 129.2   359.4 7.1
2002-03-28 07:29:56 51°13.688 2°55.906 129.2   358 7.1
2002-03-28 07:30:01 51°13.688 2°55.906 129.2   8.3 7.1
2002-03-28 07:30:05 51°13.688 2°55.906 129.2   355.4 7.1
2002-03-28 07:30:10 51°13.688 2°55.906 129.2   310.7 7.1
2002-03-28 07:30:15 51°13.688 2°55.906 129.2   339.9 7.1
2002-03-28 07:30:20 51°13.688 2°55.906 129.2   61.3 7.1
2002-03-28 07:30:25 51°13.688 2°55.906 129.3   66 7.1
2002-03-28 07:30:31 51°13.688 2°55.906 129.3   54.1 7.1
2002-03-28 07:30:35 51°13.688 2°55.906 129.3   74.4 7.1
2002-03-28 07:30:41 51°13.688 2°55.906 129.3   43.4 7.1
2002-03-28 07:30:46 51°13.688 2°55.906 129.3   262.4 6.8
2002-03-28 07:30:52 51°13.687 2°55.906 129.3   253.9 7.1
2002-03-28 07:30:56 51°13.687 2°55.906 129.3   210.8 7.1
2002-03-28 07:31:01 51°13.687 2°55.906 129.3   70.8 7.1
2002-03-28 07:31:06 51°13.687 2°55.906 129.3   38.6 6.7
2002-03-28 07:31:11 51°13.687 2°55.906 129.3 0.1 38.4 -999
2002-03-28 07:31:16 51°13.686 2°55.905 129.3 0.1 34 6.6
2002-03-28 07:31:20 51°13.686 2°55.905 129.3   14.1 7.1
2002-03-28 07:31:26 51°13.686 2°55.905 129.3   357.7 7.1
2002-03-28 07:31:29 51°13.686 2°55.905 129.3   330.4 7.1
2002-03-28 07:31:35 51°13.687 2°55.906 129.3   341.2 7.1
2002-03-28 07:31:40 51°13.687 2°55.906 129.3   272 7.1
2002-03-28 07:31:45 51°13.688 2°55.906 129.3   103.3 7.1
2002-03-28 07:31:50 51°13.688 2°55.906 129.3   69.9 7.1
2002-03-28 07:31:56 51°13.688 2°55.906 129.3   50.6 7.1
2002-03-28 07:32:01 51°13.687 2°55.906 129.3   25.2 7.1
2002-03-28 07:32:06 51°13.686 2°55.905 129.3   39.2 6.8
2002-03-28 07:32:10 51°13.686 2°55.905 129.3 0.1 38.6 7.1
2002-03-28 07:32:16 51°13.686 2°55.905 129.2   36.2 7.1
2002-03-28 07:32:20 51°13.686 2°55.905 129.2   26.4 7.1
2002-03-28 07:32:24 51°13.686 2°55.905 129.2   22.4 7.1
2002-03-28 07:32:29 51°13.687 2°55.906 129.2   69.1 7.1
2002-03-28 07:32:35 51°13.688 2°55.906 129.2   243.1 7.1
2002-03-28 07:32:40 51°13.688 2°55.906 129.2   273.3 7
2002-03-28 07:32:45 51°13.689 2°55.906 129.2   262.1 7.1
2002-03-28 07:32:50 51°13.689 2°55.906 129.2   85.3 7.1
2002-03-28 07:32:55 51°13.689 2°55.906 129.2   105.4 7.1
2002-03-28 07:33:00 51°13.689 2°55.907 129.2   240 7.1
2002-03-28 07:33:05 51°13.689 2°55.907 129.2   92.9 7.1
2002-03-28 07:33:10 51°13.689 2°55.907 129.2   59.9 7.1
2002-03-28 07:33:16 51°13.688 2°55.906 129.2   58 7.1
2002-03-28 07:33:20 51°13.688 2°55.906 129.2   58.9 7.1
2002-03-28 07:33:25 51°13.688 2°55.906 129.2   24.2 7.1
2002-03-28 07:33:31 51°13.688 2°55.906 129.3   38.2 7.1
2002-03-28 07:33:35 51°13.689 2°55.906 129.3   61.3 7
2002-03-28 07:33:40 51°13.689 2°55.906 129.3   87 7.1
2002-03-28 07:33:45 51°13.689 2°55.907 129.3   34.7 7.1
2002-03-28 07:33:51 51°13.69 2°55.907 129.3   53.6 7.1
2002-03-28 07:33:55 51°13.689 2°55.906 129.3   86 7.1
2002-03-28 07:34:02 51°13.689 2°55.906 129.3   174.7 7.1
2002-03-28 07:34:06 51°13.688 2°55.906 129.3   32.7 7.1
2002-03-28 07:34:11 51°13.688 2°55.906 129.3   38.9 7.1
2002-03-28 07:34:16 51°13.688 2°55.906 129.3   32.6 7.1
2002-03-28 07:34:21 51°13.688 2°55.906 129.3   3.3 7.2
2002-03-28 07:34:26 51°13.688 2°55.906 129.3   11.6 7.2
2002-03-28 07:34:30 51°13.689 2°55.906 129.3   0.8 7.2
2002-03-28 07:34:36 51°13.689 2°55.906 129.3   2 7.2
2002-03-28 07:34:40 51°13.689 2°55.906 129.3   22.9 7.2
2002-03-28 07:34:45 51°13.689 2°55.906 129.3   47.8 7.2
2002-03-28 07:34:51 51°13.688 2°55.905 129.3   84 7.2
2002-03-28 07:34:55 51°13.688 2°55.905 129.3   258.9 7.2
2002-03-28 07:35:01 51°13.689 2°55.905 129.3   307.9 7.2
2002-03-28 07:35:06 51°13.689 2°55.905 129.3   285.4 7.2
2002-03-28 07:35:11 51°13.689 2°55.905 129.3   286.7 7.2
2002-03-28 07:35:16 51°13.689 2°55.905 129.3   8 7.2
2002-03-28 07:35:21 51°13.689 2°55.905 129.3   14.7 7.2
2002-03-28 07:35:26 51°13.689 2°55.905 129.3   41.3 7.2
2002-03-28 07:35:31 51°13.689 2°55.905 129.3   33.3 7.1
2002-03-28 07:35:35 51°13.689 2°55.905 129.3   4.9 7.1
2002-03-28 07:35:40 51°13.69 2°55.906 129.3   274.2 7.1
2002-03-28 07:35:45 51°13.691 2°55.906 129.3   224.5 7.1
2002-03-28 07:35:51 51°13.691 2°55.906 129.3   355.4 7.1
2002-03-28 07:35:55 51°13.691 2°55.906 129.3   96.2 7.1
2002-03-28 07:36:01 51°13.692 2°55.906 129.3   225.7 7.1
2002-03-28 07:36:05 51°13.692 2°55.906 129.3   250.3 7.1
2002-03-28 07:36:11 51°13.691 2°55.906 129.3   205.6 7.1
2002-03-28 07:36:15 51°13.691 2°55.906 129.3   211.1 7.1
2002-03-28 07:36:21 51°13.691 2°55.906 129.3   165.4 7.1
2002-03-28 07:36:25 51°13.691 2°55.906 129.3   75.6 7.1
2002-03-28 07:36:30 51°13.691 2°55.906 129.3   19.8 7.1
2002-03-28 07:36:35 51°13.691 2°55.906 129.3   273.9 7.1
2002-03-28 07:36:41 51°13.691 2°55.906 129.3   247.9 7.1
2002-03-28 07:36:45 51°13.691 2°55.906 129.3   289.8 7.1
2002-03-28 07:36:51 51°13.691 2°55.906 129.3   263.4 7.1
2002-03-28 07:36:56 51°13.691 2°55.906 129.3   300.1 7.1
2002-03-28 07:37:01 51°13.69 2°55.906 129.3   30.5 7.1
2002-03-28 07:37:06 51°13.689 2°55.905 129.3   33.9 7.1
2002-03-28 07:37:10 51°13.689 2°55.905 129.3   27.9 7.1
2002-03-28 07:37:16 51°13.689 2°55.905 129.3   7.9 7.1
2002-03-28 07:37:20 51°13.688 2°55.905 129.3   32.1 7.1
2002-03-28 07:37:26 51°13.688 2°55.905 129.3   42.9 7.1
2002-03-28 07:37:31 51°13.688 2°55.905 129.3   37.1 7.1
2002-03-28 07:37:36 51°13.688 2°55.905 129.3   27 7.1
2002-03-28 07:37:41 51°13.688 2°55.905 129.3   28.5 7.1
2002-03-28 07:37:46 51°13.688 2°55.905 129.3   28.8 7.2
2002-03-28 07:37:51 51°13.688 2°55.905 129.3   29.2 7.1
2002-03-28 07:37:55 51°13.688 2°55.905 129.3   36 7.2
2002-03-28 07:38:00 51°13.688 2°55.905 129.3   48 7.2
2002-03-28 07:38:05 51°13.688 2°55.905 129.3   82 7.2
2002-03-28 07:38:11 51°13.689 2°55.905 129.3   77.9 7.2
2002-03-28 07:38:16 51°13.688 2°55.905 129.3   150.6 7.2
2002-03-28 07:38:21 51°13.688 2°55.905 129.3   346.5 7.2
2002-03-28 07:38:26 51°13.688 2°55.905 129.3   14.8 7.2
2002-03-28 07:38:31 51°13.688 2°55.905 129.3   35.9 7.2
2002-03-28 07:38:36 51°13.688 2°55.905 129.3   34.1 7.2
2002-03-28 07:38:41 51°13.687 2°55.905 129.3   25.6 7.2
2002-03-28 07:38:45 51°13.687 2°55.905 129.3   14.2 7.1
2002-03-28 07:38:49 51°13.687 2°55.905 129.3   0.6 7.2
2002-03-28 07:38:56 51°13.686 2°55.904 129.3   60.2 7.2
2002-03-28 07:39:01 51°13.687 2°55.904 129.3   266.6 7.2
2002-03-28 07:39:05 51°13.687 2°55.904 129.3   343.8 7.2
2002-03-28 07:39:09 51°13.687 2°55.904 129.3   278.5 7
2002-03-28 07:39:16 51°13.687 2°55.905 129.3   312.1 7
2002-03-28 07:39:21 51°13.687 2°55.905 129.3   46.7 7.2
2002-03-28 07:39:25 51°13.687 2°55.905 129.3   17 7.2
2002-03-28 07:39:31 51°13.687 2°55.905 129.3   266.6 7.2
2002-03-28 07:39:35 51°13.687 2°55.905 129.3   266.3 7.2
2002-03-28 07:39:41 51°13.688 2°55.905 129.3   329.3 7.2
2002-03-28 07:39:45 51°13.689 2°55.906 129.3   256.7 7.2
2002-03-28 07:39:51 51°13.689 2°55.906 129.3   255.5 7.2
2002-03-28 07:39:55 51°13.689 2°55.906 129.3   91 7.2
2002-03-28 07:40:01 51°13.689 2°55.906 129.3   84.4 7.2
2002-03-28 07:40:05 51°13.689 2°55.906 129.3   79.8 7.1
2002-03-28 07:40:11 51°13.689 2°55.906 129.3   74.9 7.1
2002-03-28 07:40:16 51°13.689 2°55.906 129.3   27.6 7.1
2002-03-28 07:40:21 51°13.689 2°55.905 129.3   35.5 7.1
2002-03-28 07:40:26 51°13.688 2°55.905 129.3   19.5 6.7
2002-03-28 07:40:31 51°13.688 2°55.905 129.3   327.7 7.1
2002-03-28 07:40:36 51°13.688 2°55.905 129.3   321 7.1
2002-03-28 07:40:41 51°13.688 2°55.905 129.3   20.7 7.1
2002-03-28 07:40:45 51°13.688 2°55.905 129.5   302.8 7.1
2002-03-28 07:40:51 51°13.687 2°55.905 129.5   6.5 7.1
2002-03-28 07:40:55 51°13.687 2°55.905 129.5   49.7 7.1
2002-03-28 07:41:01 51°13.688 2°55.905 129.5   35.7 7.2
2002-03-28 07:41:05 51°13.688 2°55.905 129.3   304.5 7.1
2002-03-28 07:41:11 51°13.688 2°55.905 129.3   273.8 7.2
2002-03-28 07:41:15 51°13.688 2°55.905 129.3   252.5 7.2
2002-03-28 07:41:21 51°13.688 2°55.905 129.3   24 7.2
2002-03-28 07:41:26 51°13.687 2°55.905 129.3   42.1 7.1
2002-03-28 07:41:30 51°13.687 2°55.905 129.5   138.9 7.1
2002-03-28 07:41:36 51°13.687 2°55.905 129.5   114.1 7.1
2002-03-28 07:41:41 51°13.687 2°55.905 129.3   46.9 7.2
2002-03-28 07:41:45 51°13.687 2°55.905 129.2   329.3 7.2
2002-03-28 07:41:51 51°13.688 2°55.905 129.2   295.4 7.2
2002-03-28 07:41:55 51°13.688 2°55.905 129.2   305.6 7.1
2002-03-28 07:42:00 51°13.688 2°55.905 129.3   315.8 7.2
2002-03-28 07:42:05 51°13.688 2°55.905 129.5   244 7.2
2002-03-28 07:42:10 51°13.688 2°55.905 129.7   230.3 7.1
2002-03-28 07:42:15 51°13.688 2°55.905 129.8   232.5 7.2
2002-03-28 07:42:20 51°13.688 2°55.905 129.8   105.4 7.2
2002-03-28 07:42:25 51°13.689 2°55.905 130   79.6 7.1
2002-03-28 07:42:32 51°13.689 2°55.905 130   65.6 7.2
2002-03-28 07:42:36 51°13.688 2°55.905 129.8   52.1 7.2
2002-03-28 07:42:41 51°13.688 2°55.905 129.7 0.1 44.7 7.2
2002-03-28 07:42:46 51°13.688 2°55.905 129.3 0.1 48 7.2
2002-03-28 07:42:51 51°13.688 2°55.905 129   51 7.2
2002-03-28 07:42:56 51°13.688 2°55.905 128.3   56.8 7.2
2002-03-28 07:43:01 51°13.687 2°55.905 127.5   92.7 7.2
2002-03-28 07:43:06 51°13.687 2°55.905 126.8   99.6 7.2
2002-03-28 07:43:11 51°13.687 2°55.905 125.8   111.2 7.2
2002-03-28 07:43:16 51°13.687 2°55.905 125   174.4 7.2
2002-03-28 07:43:21 51°13.687 2°55.905 124.2   190.7 7.2
2002-03-28 07:43:26 51°13.687 2°55.905 123.5   202.1 7.2
2002-03-28 07:43:31 51°13.687 2°55.905 123   181.6 7.2
2002-03-28 07:43:36 51°13.687 2°55.905 122.3   169.3 7.2
2002-03-28 07:43:40 51°13.687 2°55.905 121.7   194.6 7.2
2002-03-28 07:43:45 51°13.687 2°55.905 121 0.1 207 7.2
2002-03-28 07:43:51 51°13.687 2°55.905 120.3 0.1 210.4 7.2
2002-03-28 07:43:55 51°13.687 2°55.905 119.7 0.1 209.8 7.2
2002-03-28 07:44:00 51°13.687 2°55.905 119 0.1 201.2 7.2
2002-03-28 07:44:05 51°13.687 2°55.905 118.5 0.1 203.6 7.2
2002-03-28 07:44:09 51°13.686 2°55.905 117.8 0.1 205.1 7.2
2002-03-28 07:44:15 51°13.686 2°55.904 117.2 0.1 215.3 7.2
2002-03-28 07:44:20 51°13.686 2°55.904 116.5   195.5 7.2
2002-03-28 07:44:25 51°13.686 2°55.904 115.8 0.1 191 7.2
2002-03-28 07:44:29 51°13.686 2°55.904 115.2 0.1 192.9 7
2002-03-28 07:44:35 51°13.686 2°55.904 114.5 0.1 201.4 7.2
2002-03-28 07:44:40 51°13.686 2°55.904 113.8 0.1 203.9 7.2
2002-03-28 07:44:45 51°13.686 2°55.904 113.2 0.1 208.7 7.2
2002-03-28 07:44:50 51°13.686 2°55.904 112.5 0.1 199 6.8
2002-03-28 07:44:55 51°13.686 2°55.904 111.7 0.1 194.2 6.8
2002-03-28 07:45:00 51°13.686 2°55.904 110.8 0.1 198.3 7.1
2002-03-28 07:45:05 51°13.686 2°55.904 110.2 0.1 195.5 7.2
2002-03-28 07:45:10 51°13.686 2°55.904 109.3 0.1 202.5 7.3
2002-03-28 07:45:15 51°13.686 2°55.904 108.7 0.1 205.7 7.2
2002-03-28 07:45:20 51°13.686 2°55.904 108 0.1 209.4 7.2
2002-03-28 07:45:25 51°13.686 2°55.904 107.3 0.1 220.4 7.2
2002-03-28 07:45:30 51°13.685 2°55.904 106.8   206 7.3
2002-03-28 07:45:35 51°13.685 2°55.904 106.3   196.6 7.3
2002-03-28 07:45:40 51°13.685 2°55.904 105.8   203.8 7.3
2002-03-28 07:45:45 51°13.685 2°55.904 105.5   206 7.3
2002-03-28 07:45:50 51°13.685 2°55.904 105.2   204.7 7.3
2002-03-28 07:45:55 51°13.685 2°55.904 105   249.9 7.3
2002-03-28 07:46:01 51°13.685 2°55.904 105   346.4 7.3
2002-03-28 07:46:05 51°13.686 2°55.904 105.3 0.1 322.3 7
2002-03-28 07:46:11 51°13.686 2°55.903 105.5 0.2 298.5 7.3
2002-03-28 07:46:15 51°13.686 2°55.901 105.7 0.7 291.2 7.3
2002-03-28 07:46:20 51°13.687 2°55.899 105.8 1 289.5 7.5
2002-03-28 07:46:25 51°13.688 2°55.895 106 1.5 289.3 7.5
2002-03-28 07:46:31 51°13.689 2°55.89 105.8 2 288.7 -999
2002-03-28 07:46:36 51°13.69 2°55.884 105.2 2.4 288 -999
2002-03-28 07:46:41 51°13.691 2°55.878 104.3 2.6 286.9 -999
2002-03-28 07:46:46 51°13.692 2°55.872 103.3 2.9 286 -999
2002-03-28 07:46:51 51°13.693 2°55.866 102.2 3 284.9 -999
2002-03-28 07:46:56 51°13.694 2°55.858 101.2 3.3 283.7 -999
2002-03-28 07:47:01 51°13.695 2°55.851 99.8 3.4 282.8 -999
2002-03-28 07:47:06 51°13.696 2°55.843 98.5 3.6 281.6 -999
2002-03-28 07:47:11 51°13.697 2°55.835 97.3 3.5 280.6 -999
2002-03-28 07:47:16 51°13.698 2°55.828 96.2 3.3 279.9 -999
2002-03-28 07:47:21 51°13.699 2°55.821 94.8 3.2 279.4 -999
2002-03-28 07:47:26 51°13.699 2°55.814 93.5 3.2 278.5 8.5
2002-03-28 07:47:30 51°13.699 2°55.809 92.3 3.2 277.2 8.9
2002-03-28 07:47:35 51°13.7 2°55.801 91 3.3 275.4 9.5
2002-03-28 07:47:40 51°13.7 2°55.794 89.5 3.3 274 9.8
2002-03-28 07:47:46 51°13.7 2°55.785 87.5 3.3 272.4 -999
2002-03-28 07:47:51 51°13.701 2°55.778 85.7 3.4 271.3 11
2002-03-28 07:47:57 51°13.701 2°55.769 84 3.3 270.3 -999
2002-03-28 07:48:01 51°13.701 2°55.764 82.3 3.2 269.4 -999
2002-03-28 07:48:06 51°13.7 2°55.758 80.8 3 268.3 -999
2002-03-28 07:48:11 51°13.7 2°55.751 79.5 2.9 267.3 -999
2002-03-28 07:48:16 51°13.7 2°55.745 78.2 2.8 266.2 12.2
2002-03-28 07:48:20 51°13.7 2°55.74 76.8 2.7 265.3 12.1
2002-03-28 07:48:25 51°13.699 2°55.735 75.8 2.6 264.4 12.1
2002-03-28 07:48:30 51°13.699 2°55.73 74.5 2.5 263.2 12.1
2002-03-28 07:48:35 51°13.698 2°55.724 73.5 2.4 263 11.8
2002-03-28 07:48:40 51°13.698 2°55.72 72.2 2.2 263.5 12.1
2002-03-28 07:48:45 51°13.698 2°55.717 70.2 1.7 267.4 12.1
2002-03-28 07:48:51 51°13.699 2°55.716 65.3 0.8 290 12
2002-03-28 07:48:55 51°13.7 2°55.716 57.7 0.7 347.1 12.1
2002-03-28 07:49:00 51°13.702 2°55.718 48.7 1.4 26.7 11.1
2002-03-28 07:49:05 51°13.706 2°55.721 37.8 2 26.3 10.9
2002-03-28 07:49:10 51°13.71 2°55.723 27.7 2.9 20.8 10.6
2002-03-28 07:49:15 51°13.716 2°55.724 17.7 3.3 14 10.2
2002-03-28 07:49:20 51°13.722 2°55.724 7.3 3.9 3.5 9.6
2002-03-28 07:49:25 51°13.728 2°55.722 357.7 4.3 356.2 9.1
2002-03-28 07:49:31 51°13.737 2°55.718 349.7 5 346.7 9.2
2002-03-28 07:49:35 51°13.742 2°55.715 343.2 5.5 341.7 9.3
2002-03-28 07:49:40 51°13.75 2°55.709 339.5 5.9 337.9 9.3
2002-03-28 07:49:45 51°13.758 2°55.702 338 6.6 335 9.4
2002-03-28 07:49:50 51°13.767 2°55.695 337.3 7.1 333.9 9.3
2002-03-28 07:49:55 51°13.777 2°55.687 336.3 7.4 333.6 9.1
2002-03-28 07:50:00 51°13.786 2°55.679 334.7 7.8 332.4 9.3
2002-03-28 07:50:05 51°13.796 2°55.67 334.2 8.1 331.7 9.4
2002-03-28 07:50:11 51°13.807 2°55.659 334.2 8.2 331.2 9.2
2002-03-28 07:50:15 51°13.816 2°55.652 334.8 8.4 331.5 9.4
2002-03-28 07:50:20 51°13.826 2°55.642 335.3 8.6 331.9 9.4
2002-03-28 07:50:25 51°13.837 2°55.634 336.2 8.8 332.5 9.3
2002-03-28 07:50:29 51°13.847 2°55.626 337 9 333.3 9.1
2002-03-28 07:50:35 51°13.86 2°55.616 338 9 333.7 8.9
2002-03-28 07:50:40 51°13.872 2°55.608 338.2 9.1 334.5 8.9
2002-03-28 07:50:45 51°13.883 2°55.599 337.7 9.2 334.5 9.1
2002-03-28 07:50:51 51°13.897 2°55.588 338.2 9.3 334.6 9.1
2002-03-28 07:50:55 51°13.907 2°55.581 338.8 9.3 335.1 9.2
2002-03-28 07:51:00 51°13.919 2°55.573 338.5 9.4 335.4 9.2
2002-03-28 07:51:05 51°13.931 2°55.564 338.7 9.5 335.4 9.1
2002-03-28 07:51:11 51°13.945 2°55.554 339.2 9.5 335.9 9.1
2002-03-28 07:51:15 51°13.954 2°55.547 338.3 9.5 335.7 9.1
2002-03-28 07:51:20 51°13.966 2°55.538 337.8 9.5 335.1 8.1
2002-03-28 07:51:25 51°13.978 2°55.53 338.2 9.3 335 9
2002-03-28 07:51:30 51°13.989 2°55.521 338.8 9.1 335.4 9.1
2002-03-28 07:51:35 51°14 2°55.514 338.8 8.8 335.5 9
2002-03-28 07:51:40 51°14.01 2°55.506 338.2 8.4 335.2 9.1
2002-03-28 07:51:45 51°14.02 2°55.498 338 8.2 335 9
2002-03-28 07:51:51 51°14.032 2°55.49 338.3 7.9 335 9
2002-03-28 07:51:56 51°14.041 2°55.483 338.7 7.6 335.5 9.1
2002-03-28 07:52:00 51°14.049 2°55.478 338.7 7.4 335.4 9.1
2002-03-28 07:52:05 51°14.058 2°55.471 338 7.2 335.2 9
2002-03-28 07:52:10 51°14.066 2°55.464 337.5 7 334.4 9.1
2002-03-28 07:52:15 51°14.075 2°55.458 337.2 6.9 334.1 9.1
2002-03-28 07:52:20 51°14.083 2°55.451 336.8 6.7 333.5 9.2
2002-03-28 07:52:25 51°14.091 2°55.444 337 6.7 333.6 9.2
2002-03-28 07:52:31 51°14.101 2°55.436 336.7 6.7 333.2 -999
2002-03-28 07:52:36 51°14.11 2°55.429 336.3 6.8 333 9.2
2002-03-28 07:52:40 51°14.117 2°55.423 335.8 6.9 332.2 9.2
2002-03-28 07:52:45 51°14.125 2°55.416 335.7 7 332 9.2
2002-03-28 07:52:50 51°14.134 2°55.409 335.7 7.1 332 9.2
2002-03-28 07:52:55 51°14.144 2°55.401 335.7 7.3 332.2 9.3
2002-03-28 07:53:01 51°14.155 2°55.391 335 7.8 331.8 9.3
2002-03-28 07:53:05 51°14.163 2°55.384 334 8.1 331.2 9.3
2002-03-28 07:53:10 51°14.173 2°55.374 332.7 8.3 330.4 9.3
2002-03-28 07:53:15 51°14.184 2°55.364 331.8 8.6 329.1 9.3
2002-03-28 07:53:20 51°14.194 2°55.354 330.3 8.9 327.4 9.3
2002-03-28 07:53:25 51°14.204 2°55.342 328.2 9 325.7 9.3
2002-03-28 07:53:30 51°14.215 2°55.329 325.8 9.2 323.9 9.3
2002-03-28 07:53:35 51°14.225 2°55.316 323.5 9.3 321.1 9.4
2002-03-28 07:53:40 51°14.234 2°55.302 321.3 9.4 318.5 9.4
2002-03-28 07:53:45 51°14.244 2°55.287 319.3 9.5 316.6 9.4
2002-03-28 07:53:51 51°14.255 2°55.268 316.8 9.6 314 9.4
2002-03-28 07:53:55 51°14.262 2°55.256 316 9.6 312.8 9.4
2002-03-28 07:54:00 51°14.271 2°55.24 315.2 9.7 311.8 9.3
2002-03-28 07:54:05 51°14.279 2°55.224 313.7 9.7 310.9 9.2
2002-03-28 07:54:09 51°14.286 2°55.21 312.7 9.7 309.7 9.1
2002-03-28 07:54:15 51°14.297 2°55.19 311.8 9.7 308.9 9.2
2002-03-28 07:54:20 51°14.306 2°55.173 310.8 9.8 307.9 9.1
2002-03-28 07:54:25 51°14.314 2°55.156 310.5 9.8 307.7 9.2
2002-03-28 07:54:30 51°14.322 2°55.139 310.2 9.9 307.5 9.1
2002-03-28 07:54:35 51°14.33 2°55.121 309.8 9.9 307.3 9
2002-03-28 07:54:40 51°14.338 2°55.103 309.7 9.9 307.1 9
2002-03-28 07:54:44 51°14.345 2°55.089 309.8 10 307.1 9.2
2002-03-28 07:54:50 51°14.355 2°55.068 310.2 10.1 307 9.3
2002-03-28 07:54:55 51°14.364 2°55.05 309.5 10.1 305.9 9.3
2002-03-28 07:55:00 51°14.372 2°55.031 308 10.3 303.6 9.1
2002-03-28 07:55:05 51°14.38 2°55.011 306.5 10.4 301.9 9
2002-03-28 07:55:09 51°14.385 2°54.994 304.8 10.6 299.8 9
2002-03-28 07:55:15 51°14.393 2°54.969 302.8 10.7 298 9.1
2002-03-28 07:55:20 51°14.4 2°54.947 300 10.8 295.3 9.2
2002-03-28 07:55:25 51°14.406 2°54.925 296 10.9 292.3 9.2
2002-03-28 07:55:31 51°14.411 2°54.897 291.2 11 287.5 9.2
2002-03-28 07:55:35 51°14.413 2°54.877 287.3 11.1 284 9.2
2002-03-28 07:55:40 51°14.415 2°54.853 285.2 11.2 280.6 9.1
2002-03-28 07:55:45 51°14.417 2°54.828 282.8 11.3 278.8 9.1
2002-03-28 07:55:51 51°14.418 2°54.797 280.2 11.5 276.2 9.1
2002-03-28 07:55:55 51°14.418 2°54.777 277.5 11.6 274.1 9.1
2002-03-28 07:56:00 51°14.419 2°54.75 276.5 11.7 272.7 9.2
2002-03-28 07:56:05 51°14.419 2°54.725 276.3 11.8 271.5 9.2
2002-03-28 07:56:09 51°14.419 2°54.704 274.2 11.8 270.3 9.2
2002-03-28 07:56:15 51°14.418 2°54.672 271.7 11.9 268.3 9.2
2002-03-28 07:56:20 51°14.417 2°54.646 269.8 12 266.4 9.2
2002-03-28 07:56:25 51°14.415 2°54.62 268.3 12 265.3 9.1
2002-03-28 07:56:31 51°14.412 2°54.588 266 12 262.7 9.1
2002-03-28 07:56:35 51°14.409 2°54.567 262.8 12.1 259.8 9.1
2002-03-28 07:56:41 51°14.404 2°54.536 259.5 12.1 256.1 9
2002-03-28 07:56:45 51°14.4 2°54.515 256.7 12.1 253.9 -999
2002-03-28 07:56:51 51°14.393 2°54.485 254.5 12.1 251.2 8.3
2002-03-28 07:56:55 51°14.388 2°54.465 252.3 12.2 249.9 8.8
2002-03-28 07:56:59 51°14.384 2°54.445 250.8 12.2 248 8.7
2002-03-28 07:57:05 51°14.377 2°54.415 250.2 12.2 247.4 8.6
2002-03-28 07:57:11 51°14.368 2°54.385 249.8 12.3 246.8 8.6
2002-03-28 07:57:15 51°14.363 2°54.365 249.7 12.4 246.7 8.5
2002-03-28 07:57:20 51°14.356 2°54.34 250.2 12.5 246.8 8.5
2002-03-28 07:57:25 51°14.349 2°54.314 250.5 12.5 246.8 8.5
2002-03-28 07:57:31 51°14.341 2°54.284 250.2 12.6 246.9 8.4
2002-03-28 07:57:35 51°14.336 2°54.263 250.8 12.6 247.3 8.4
2002-03-28 07:57:40 51°14.329 2°54.237 251.3 12.7 247.9 8.3
2002-03-28 07:57:45 51°14.322 2°54.21 251.5 12.7 248.2 8.3
2002-03-28 07:57:51 51°14.313 2°54.179 251.5 12.8 248.2 8.3
2002-03-28 07:57:55 51°14.308 2°54.158 251.5 12.9 248.3 8.4
2002-03-28 07:58:00 51°14.301 2°54.131 251.3 13 248 8.2
2002-03-28 07:58:05 51°14.295 2°54.104 251 13 248 8.3
2002-03-28 07:58:10 51°14.287 2°54.077 250.5 13.1 247.6 8.2
2002-03-28 07:58:15 51°14.28 2°54.05 250.5 13.2 247.5 8.3
2002-03-28 07:58:20 51°14.273 2°54.023 251 13.2 247.8 8.2
2002-03-28 07:58:25 51°14.266 2°53.996 250.8 13.2 247.7 8.2
2002-03-28 07:58:31 51°14.258 2°53.963 251 13.3 248.1 8.2
2002-03-28 07:58:35 51°14.252 2°53.941 251.2 13.3 247.8 8.3
2002-03-28 07:58:40 51°14.246 2°53.914 251 13.4 247.8 8.2
2002-03-28 07:58:45 51°14.238 2°53.887 251 13.4 247.9 8.2
2002-03-28 07:58:51 51°14.23 2°53.853 251 13.5 247.7 8.3
2002-03-28 07:58:55 51°14.224 2°53.831 251 13.6 247.8 8.3
2002-03-28 07:59:00 51°14.217 2°53.802 251 13.7 247.8 8.4
2002-03-28 07:59:05 51°14.21 2°53.774 251 13.8 248.2 8.3
2002-03-28 07:59:11 51°14.202 2°53.739 251.3 13.9 248.3 8.4
2002-03-28 07:59:15 51°14.196 2°53.716 251.7 14 248.4 8.4
2002-03-28 07:59:20 51°14.189 2°53.687 251.7 14.1 248.4 8.4
2002-03-28 07:59:25 51°14.181 2°53.658 251.2 14.1 248.3 8.4
2002-03-28 07:59:29 51°14.175 2°53.635 250.8 14.2 247.6 8.4
2002-03-28 07:59:35 51°14.166 2°53.6 249.8 14.2 247.5 8.5
2002-03-28 07:59:40 51°14.157 2°53.571 248 14.3 245.2 8.5
2002-03-28 07:59:45 51°14.149 2°53.543 246.5 14.3 244.5 8.5
2002-03-28 07:59:51 51°14.138 2°53.509 245 14.3 242.6 8.6
2002-03-28 07:59:55 51°14.13 2°53.487 243.8 14.4 241.6 8.6
2002-03-28 08:00:00 51°14.12 2°53.46 242.7 14.5 240.7 8.6
2002-03-28 08:00:05 51°14.109 2°53.433 242.3 14.5 240.2 8.6
2002-03-28 08:00:11 51°14.097 2°53.4 242 14.5 240.2 8.7
2002-03-28 08:00:15 51°14.089 2°53.377 242.3 14.5 240.3 8.7
2002-03-28 08:00:20 51°14.079 2°53.35 242.5 14.5 240.2 8.7
2002-03-28 08:00:25 51°14.069 2°53.322 242.2 14.5 240.3 8.7
2002-03-28 08:00:31 51°14.058 2°53.287 242.8 14.6 240.9 8.8
2002-03-28 08:00:35 51°14.05 2°53.265 243.3 14.6 240.9 8.8
2002-03-28 08:00:40 51°14.04 2°53.237 243.2 14.6 241.1 8.8
2002-03-28 08:00:45 51°14.03 2°53.208 243.5 14.6 241.2 8.9
2002-03-28 08:00:51 51°14.019 2°53.174 243.7 14.6 241.5 8.9
2002-03-28 08:00:55 51°14.011 2°53.151 243.7 14.7 241.5 9
2002-03-28 08:01:00 51°14.001 2°53.123 243.8 14.7 241.3 9
2002-03-28 08:01:05 51°13.991 2°53.094 243.7 14.7 241.3 9
2002-03-28 08:01:10 51°13.981 2°53.066 243.7 14.7 241.1 9.1
2002-03-28 08:01:15 51°13.972 2°53.037 243.2 14.7 241 9.1
2002-03-28 08:01:20 51°13.962 2°53.009 243.5 14.7 241.3 9.2
2002-03-28 08:01:25 51°13.952 2°52.981 243.5 14.7 241.1 9.2
2002-03-28 08:01:30 51°13.942 2°52.952 243.5 14.8 241.2 9.2
2002-03-28 08:01:35 51°13.932 2°52.923 243.8 14.8 241.5 9.3
2002-03-28 08:01:40 51°13.922 2°52.895 243.7 14.8 240.9 9.3
2002-03-28 08:01:45 51°13.913 2°52.865 243.2 14.8 241.4 9.3
2002-03-28 08:01:49 51°13.905 2°52.843 243.8 14.8 241.5 9.3
2002-03-28 08:01:55 51°13.893 2°52.808 243.8 14.8 241.2 9.3
2002-03-28 08:02:00 51°13.883 2°52.779 243.7 14.8 241.5 9.3
2002-03-28 08:02:04 51°13.875 2°52.756 243.3 14.8 240.9 9.4
2002-03-28 08:02:10 51°13.863 2°52.722 242.7 14.9 240.6 9.4
2002-03-28 08:02:15 51°13.852 2°52.694 243.5 14.9 240.6 9.4
2002-03-28 08:02:20 51°13.842 2°52.665 243.5 14.8 240.8 9.4
2002-03-28 08:02:25 51°13.833 2°52.636 243.5 14.8 241.1 9.4
2002-03-28 08:02:29 51°13.825 2°52.613 244.2 14.9 241.4 9.4
2002-03-28 08:02:35 51°13.813 2°52.578 244.2 14.9 241.7 9.4
2002-03-28 08:02:40 51°13.804 2°52.548 244.3 14.9 241.6 9.4
2002-03-28 08:02:45 51°13.794 2°52.52 243.8 14.9 241.4 9.5
2002-03-28 08:02:50 51°13.784 2°52.491 243.7 14.9 241.3 9.5
2002-03-28 08:02:55 51°13.774 2°52.462 244 14.9 241.1 9.4
2002-03-28 08:03:00 51°13.764 2°52.433 244 14.9 241.2 9.5
2002-03-28 08:03:05 51°13.754 2°52.404 244.2 14.9 241.6 9.6
2002-03-28 08:03:09 51°13.746 2°52.381 243.7 14.9 241 9.6
2002-03-28 08:03:15 51°13.734 2°52.346 243.5 14.9 241.3 9.6
2002-03-28 08:03:20 51°13.724 2°52.317 244 14.9 241.2 9.6
2002-03-28 08:03:25 51°13.714 2°52.289 243.8 14.9 241.3 9.7
2002-03-28 08:03:30 51°13.704 2°52.26 243.8 14.9 241.6 9.7
2002-03-28 08:03:35 51°13.694 2°52.231 243.5 14.9 241 9.7
2002-03-28 08:03:40 51°13.684 2°52.202 243.5 15 241.4 9.7
2002-03-28 08:03:45 51°13.674 2°52.173 243.7 15 241.2 9.7
2002-03-28 08:03:49 51°13.666 2°52.149 244.2 15 241.6 9.7
2002-03-28 08:03:55 51°13.654 2°52.115 243.5 15 241.3 9.7
2002-03-28 08:04:00 51°13.645 2°52.085 243.7 15 241.7 9.7
2002-03-28 08:04:05 51°13.635 2°52.056 244.2 15 241.5 9.7
2002-03-28 08:04:10 51°13.625 2°52.027 244.2 15 241.8 9.7
2002-03-28 08:04:15 51°13.615 2°51.998 244 15 241.7 9.7
2002-03-28 08:04:20 51°13.605 2°51.969 244.2 15 241.7 9.7
2002-03-28 08:04:25 51°13.595 2°51.94 244 15 241.7 9.7
2002-03-28 08:04:29 51°13.587 2°51.917 243.7 15 241.4 9.7
2002-03-28 08:04:35 51°13.575 2°51.882 243.5 15 241.5 9.7
2002-03-28 08:04:40 51°13.566 2°51.853 243.5 15 241.3 9.7
2002-03-28 08:04:45 51°13.556 2°51.823 244.2 15 241.7 9.7
2002-03-28 08:04:50 51°13.546 2°51.795 243.8 15 241.4 9.7
2002-03-28 08:04:55 51°13.536 2°51.765 243.8 15 241.5 9.7
2002-03-28 08:05:00 51°13.526 2°51.737 243.8 15 241.3 9.7
2002-03-28 08:05:05 51°13.516 2°51.707 243.5 15 241.3 9.7
2002-03-28 08:05:10 51°13.506 2°51.678 243.8 15 241.4 9.7
2002-03-28 08:05:15 51°13.496 2°51.649 243.8 15 241.7 9.7
2002-03-28 08:05:20 51°13.486 2°51.62 244 15 241.8 9.7
2002-03-28 08:05:26 51°13.474 2°51.585 244.3 15 241.8 9.7
2002-03-28 08:05:30 51°13.466 2°51.562 243.8 15 241.5 9.8
2002-03-28 08:05:35 51°13.456 2°51.532 243.8 15.1 241.5 9.8
2002-03-28 08:05:40 51°13.446 2°51.503 244 15 241.4 9.9
2002-03-28 08:05:45 51°13.436 2°51.474 243.7 15 241.4 9.9
2002-03-28 08:05:51 51°13.425 2°51.439 244.2 15 241.6 10
2002-03-28 08:05:55 51°13.416 2°51.416 243.7 15 241.5 9.9
2002-03-28 08:06:00 51°13.407 2°51.387 243.8 15 241.6 9.9
2002-03-28 08:06:05 51°13.397 2°51.358 244.2 15 241.7 9.9
2002-03-28 08:06:10 51°13.387 2°51.328 244.2 15 241.6 9.9
2002-03-28 08:06:15 51°13.377 2°51.299 244 15 241.6 10
2002-03-28 08:06:20 51°13.367 2°51.27 244 15 241.7 10
2002-03-28 08:06:25 51°13.357 2°51.242 244 15 241.1 10
2002-03-28 08:06:30 51°13.347 2°51.212 243.8 15 241.9 10
2002-03-28 08:06:35 51°13.337 2°51.183 244 15 241.7 10.1
2002-03-28 08:06:40 51°13.327 2°51.154 244.3 15 241.8 10.1
2002-03-28 08:06:45 51°13.317 2°51.125 243.8 15 241.7 10.1
2002-03-28 08:06:51 51°13.305 2°51.089 243.5 15.1 241.6 10.1
2002-03-28 08:06:55 51°13.298 2°51.066 243.8 15.1 241.5 10.1
2002-03-28 08:07:01 51°13.286 2°51.031 243.8 15.1 241.4 10.1
2002-03-28 08:07:05 51°13.278 2°51.007 243.3 15.1 241.4 10.2
2002-03-28 08:07:10 51°13.267 2°50.978 243.3 15 241 10.2
2002-03-28 08:07:15 51°13.257 2°50.949 243.5 15 241.2 10.1
2002-03-28 08:07:20 51°13.247 2°50.92 243.7 15 241.3 10.2
2002-03-28 08:07:25 51°13.236 2°50.891 243.3 15 240.9 10.2
2002-03-28 08:07:30 51°13.227 2°50.862 243.2 15 241.2 10.2
2002-03-28 08:07:35 51°13.217 2°50.833 243.5 15 241.3 10.2
2002-03-28 08:07:40 51°13.207 2°50.804 243.7 15 241.4 10.3
2002-03-28 08:07:45 51°13.197 2°50.775 243.5 15 241.3 10.2
2002-03-28 08:07:49 51°13.189 2°50.751 243.8 15 241.6 10.2
2002-03-28 08:07:55 51°13.177 2°50.717 243.8 15 241.4 10.2
2002-03-28 08:08:00 51°13.167 2°50.687 243.7 15 241.7 10.3
2002-03-28 08:08:05 51°13.158 2°50.658 243.8 15 242 10.2
2002-03-28 08:08:10 51°13.148 2°50.629 244.2 15 241.8 10.3
2002-03-28 08:08:15 51°13.138 2°50.6 244 15 241.7 10.3
2002-03-28 08:08:20 51°13.129 2°50.571 244 15 241.8 10.3
2002-03-28 08:08:25 51°13.119 2°50.542 244.3 15.1 241.6 10.4
2002-03-28 08:08:29 51°13.111 2°50.518 243.7 15 241.6 10.4
2002-03-28 08:08:35 51°13.099 2°50.483 244 15 241.8 10.4
2002-03-28 08:08:40 51°13.089 2°50.454 244.5 15 241.8 10.3
2002-03-28 08:08:45 51°13.079 2°50.424 244 15 241.9 10.3
2002-03-28 08:08:51 51°13.068 2°50.389 244.2 15.1 241.9 10.3
2002-03-28 08:08:55 51°13.059 2°50.367 243.5 15.1 241.3 10.3
2002-03-28 08:09:00 51°13.05 2°50.337 243.3 15.1 241.5 10.3
2002-03-28 08:09:05 51°13.039 2°50.308 243.5 15 241.5 10.4
2002-03-28 08:09:10 51°13.029 2°50.279 244 15 241.4 10.4
2002-03-28 08:09:15 51°13.02 2°50.249 243.3 15 242 10.5
2002-03-28 08:09:20 51°13.009 2°50.22 243.5 15 241.6 10.5
2002-03-28 08:09:25 51°12.999 2°50.191 243.8 15 241.5 10.5
2002-03-28 08:09:30 51°12.989 2°50.161 243.3 15 241.6 10.5
2002-03-28 08:09:35 51°12.979 2°50.132 244 15 241.5 10.5
2002-03-28 08:09:40 51°12.969 2°50.103 244.2 15 241.5 10.5
2002-03-28 08:09:45 51°12.96 2°50.074 243.8 15 241.7 10.5
2002-03-28 08:09:51 51°12.948 2°50.039 243.8 15 241.4 10.5
2002-03-28 08:09:55 51°12.939 2°50.016 243.3 15 240.8 10.5
2002-03-28 08:10:00 51°12.929 2°49.987 242.8 15.1 241 10.5
2002-03-28 08:10:05 51°12.918 2°49.958 242.8 15 240.8 10.5
2002-03-28 08:10:10 51°12.908 2°49.929 243 15 240.8 10.6
2002-03-28 08:10:15 51°12.898 2°49.9 242.7 15 240.6 10.6
2002-03-28 08:10:20 51°12.888 2°49.871 242.5 15 240.6 10.6
2002-03-28 08:10:25 51°12.878 2°49.842 242.5 15 240.4 10.6
2002-03-28 08:10:30 51°12.868 2°49.813 242.5 15 240.5 10.6
2002-03-28 08:10:35 51°12.857 2°49.784 242.8 15.1 240.4 10.6
2002-03-28 08:10:39 51°12.849 2°49.761 242.3 15 240.3 10.6
2002-03-28 08:10:45 51°12.837 2°49.726 242.8 15.1 240.7 10.7
2002-03-28 08:10:50 51°12.826 2°49.697 242.8 15.1 240.6 10.7
2002-03-28 08:10:55 51°12.816 2°49.668 242.5 15.1 240.4 10.7
2002-03-28 08:11:00 51°12.806 2°49.639 243 15.1 240.8 10.7
2002-03-28 08:11:05 51°12.796 2°49.61 243.2 15.1 240.8 10.7
2002-03-28 08:11:11 51°12.784 2°49.575 243.3 15.1 241 10.7
2002-03-28 08:11:15 51°12.776 2°49.552 243.2 15.1 241 10.7
2002-03-28 08:11:20 51°12.766 2°49.523 243.2 15.1 241 10.8
2002-03-28 08:11:25 51°12.756 2°49.494 242.5 15.1 241 10.7
2002-03-28 08:11:31 51°12.744 2°49.458 242.5 15.1 240.7 10.8
2002-03-28 08:11:35 51°12.736 2°49.435 243.2 15.1 241 10.8
2002-03-28 08:11:39 51°12.727 2°49.412 243.2 15.1 240.9 10.8
2002-03-28 08:11:45 51°12.715 2°49.377 243 15.1 241.1 10.8
2002-03-28 08:11:51 51°12.703 2°49.341 243.2 15.1 241.5 10.8
2002-03-28 08:11:55 51°12.695 2°49.318 243.2 15.1 241 10.8
2002-03-28 08:12:00 51°12.685 2°49.289 243 15.1 241.5 10.8
2002-03-28 08:12:05 51°12.675 2°49.26 243.2 15.1 241 10.9
2002-03-28 08:12:10 51°12.665 2°49.23 242.8 15.1 241 10.9
2002-03-28 08:12:15 51°12.655 2°49.201 242.8 15.1 241 10.9
2002-03-28 08:12:20 51°12.645 2°49.172 243.2 15.1 240.7 10.9
2002-03-28 08:12:25 51°12.634 2°49.143 242.5 15.1 240.6 11
2002-03-28 08:12:29 51°12.626 2°49.12 242.2 15.2 240.3 11
2002-03-28 08:12:35 51°12.614 2°49.085 242.2 15.1 240.4 11
2002-03-28 08:12:40 51°12.603 2°49.056 242.3 15.1 240.4 11
2002-03-28 08:12:45 51°12.593 2°49.027 243 15.1 240.6 11
2002-03-28 08:12:50 51°12.583 2°48.998 243 15.1 240.7 11
2002-03-28 08:12:55 51°12.573 2°48.969 242.7 15.1 240.6 11
2002-03-28 08:13:00 51°12.562 2°48.94 243.2 15.1 240.6 11
2002-03-28 08:13:05 51°12.552 2°48.911 243 15.1 241.1 11
2002-03-28 08:13:10 51°12.542 2°48.882 243.2 15.1 240.9 11
2002-03-28 08:13:15 51°12.532 2°48.852 243 15.1 241.2 11.1
2002-03-28 08:13:20 51°12.522 2°48.823 243.2 15.1 241.2 11.1
2002-03-28 08:13:25 51°12.512 2°48.794 243.5 15.1 241.1 11.1
2002-03-28 08:13:30 51°12.502 2°48.765 242.8 15.1 241 11.1
2002-03-28 08:13:35 51°12.492 2°48.736 243.2 15.1 240.7 11.1
2002-03-28 08:13:40 51°12.482 2°48.707 243.2 15.1 241.2 11.2
2002-03-28 08:13:45 51°12.471 2°48.678 242.8 15.1 240.5 11.2
2002-03-28 08:13:49 51°12.464 2°48.655 242.8 15 241 11.2
2002-03-28 08:13:55 51°12.451 2°48.62 242.8 15 240.9 11.2
2002-03-28 08:14:00 51°12.441 2°48.591 242.8 15 240.6 11.2
2002-03-28 08:14:05 51°12.431 2°48.562 242.3 15 240.6 11.2
2002-03-28 08:14:10 51°12.421 2°48.534 242.3 15 240.4 11.2
2002-03-28 08:14:15 51°12.41 2°48.505 242.7 15 240.4 11.2
2002-03-28 08:14:20 51°12.401 2°48.476 243 15 241.1 11.2
2002-03-28 08:14:25 51°12.39 2°48.447 243 15 240.7 11.2
2002-03-28 08:14:29 51°12.383 2°48.423 242.8 15 241.2 11.2
2002-03-28 08:14:35 51°12.37 2°48.389 242.8 15 240.8 11.2
2002-03-28 08:14:40 51°12.36 2°48.36 242 15.1 240.4 11.3
2002-03-28 08:14:45 51°12.349 2°48.331 241 15.1 239.9 11.3
2002-03-28 08:14:50 51°12.339 2°48.303 240.8 15 239.2 11.3
2002-03-28 08:14:55 51°12.328 2°48.275 240.5 15 238.7 11.3
2002-03-28 08:15:00 51°12.317 2°48.246 240.3 15 238.7 11.3
2002-03-28 08:15:05 51°12.306 2°48.218 240.7 15 238.8 11.3
2002-03-28 08:15:11 51°12.293 2°48.184 240.8 15 238.9 11.3
2002-03-28 08:15:15 51°12.285 2°48.161 240.3 15 238.9 11.3
2002-03-28 08:15:20 51°12.274 2°48.133 240.7 15 238.9 11.3
2002-03-28 08:15:25 51°12.263 2°48.105 240.5 15 238.9 11.3
2002-03-28 08:15:30 51°12.252 2°48.076 240.5 15 239 11.3
2002-03-28 08:15:35 51°12.242 2°48.048 240.3 15 238.7 11.3
2002-03-28 08:15:40 51°12.231 2°48.019 240.8 15 239.1 11.4
2002-03-28 08:15:45 51°12.22 2°47.991 240.8 15 239 11.4
2002-03-28 08:15:50 51°12.21 2°47.962 240.5 15 239.1 11.3
2002-03-28 08:15:55 51°12.199 2°47.934 241 15 239 11.4
2002-03-28 08:16:00 51°12.188 2°47.906 240.7 15 239 11.3
2002-03-28 08:16:05 51°12.178 2°47.877 240.7 15 239.1 11.4
2002-03-28 08:16:10 51°12.167 2°47.849 241.2 15 239.2 11.3
2002-03-28 08:16:15 51°12.156 2°47.821 240.5 15 239 11.2
2002-03-28 08:16:20 51°12.146 2°47.792 240.7 15 239 11.3
2002-03-28 08:16:26 51°12.133 2°47.758 240.7 15 239.1 11.3
2002-03-28 08:16:30 51°12.125 2°47.735 240.8 15 239.6 11.3
2002-03-28 08:16:35 51°12.114 2°47.707 240.8 15 239.1 11.3
2002-03-28 08:16:40 51°12.104 2°47.678 240.8 15 239.7 11.3
2002-03-28 08:16:45 51°12.093 2°47.65 240.8 15 239.3 11.3
2002-03-28 08:16:51 51°12.081 2°47.616 241.2 15 239.5 11.3
2002-03-28 08:16:55 51°12.072 2°47.593 240.8 15 239.1 11.3
2002-03-28 08:17:00 51°12.061 2°47.565 240.5 15 239.3 11.3
2002-03-28 08:17:05 51°12.051 2°47.537 240.7 15 238.9 11.3
2002-03-28 08:17:11 51°12.038 2°47.502 240.8 15 239.3 11.2
2002-03-28 08:17:15 51°12.03 2°47.48 240.5 15 239 11.3
2002-03-28 08:17:20 51°12.02 2°47.452 240.5 14.9 239.3 11.3
2002-03-28 08:17:25 51°12.009 2°47.424 240.7 14.9 239 11.2
2002-03-28 08:17:31 51°11.996 2°47.389 241 14.9 239.4 11.2
2002-03-28 08:17:35 51°11.987 2°47.367 240.7 14.9 239.2 11.2
2002-03-28 08:17:40 51°11.977 2°47.338 240.8 14.9 239.4 11.2
2002-03-28 08:17:45 51°11.966 2°47.31 240.8 14.9 239.5 11.2
2002-03-28 08:17:51 51°11.953 2°47.276 241 15 239.3 11.1
2002-03-28 08:17:55 51°11.945 2°47.253 241.3 15 239.4 11.1
2002-03-28 08:17:59 51°11.937 2°47.231 241 14.9 239.1 11.1
2002-03-28 08:18:05 51°11.924 2°47.197 240.7 14.9 239.4 11.1
2002-03-28 08:18:11 51°11.911 2°47.163 241 14.9 239.3 11.1
2002-03-28 08:18:15 51°11.903 2°47.14 240.7 15 239.4 11
2002-03-28 08:18:20 51°11.892 2°47.112 240.8 15 239.3 11
2002-03-28 08:18:25 51°11.881 2°47.084 241.2 15 239.1 11
2002-03-28 08:18:29 51°11.873 2°47.061 240.5 14.9 238.6 10.9
2002-03-28 08:18:35 51°11.861 2°47.027 240.5 14.9 239.5 10.8
2002-03-28 08:18:39 51°11.852 2°47.005 240.8 14.9 239 10.9
2002-03-28 08:18:45 51°11.839 2°46.97 240.7 15 239.3 11
2002-03-28 08:18:50 51°11.828 2°46.942 241 14.9 239.1 10.9
2002-03-28 08:18:55 51°11.818 2°46.914 240.7 14.9 239.3 10.9
2002-03-28 08:19:00 51°11.808 2°46.885 241 14.9 239.4 10.9
2002-03-28 08:19:05 51°11.797 2°46.857 241.3 14.9 239.4 11
2002-03-28 08:19:10 51°11.786 2°46.829 241 14.9 239.4 11
2002-03-28 08:19:15 51°11.776 2°46.801 241 14.9 239.3 10.9
2002-03-28 08:19:20 51°11.765 2°46.772 240.8 14.9 239.4 10.9
2002-03-28 08:19:25 51°11.755 2°46.744 240.7 14.9 239.3 10.9
2002-03-28 08:19:30 51°11.744 2°46.716 240.8 14.9 239.4 10.9
2002-03-28 08:19:35 51°11.733 2°46.688 240.8 14.9 239.1 10.9
2002-03-28 08:19:40 51°11.723 2°46.659 240.7 14.9 239.2 10.8
2002-03-28 08:19:44 51°11.715 2°46.637 241 14.9 239.3 10.8
2002-03-28 08:19:49 51°11.704 2°46.608 240.7 14.9 239 10.8
2002-03-28 08:19:56 51°11.69 2°46.569 240.8 14.9 239.5 10.8
2002-03-28 08:20:00 51°11.681 2°46.546 241 14.9 239.2 10.8
2002-03-28 08:20:05 51°11.671 2°46.518 241.2 14.9 239.6 10.8
2002-03-28 08:20:10 51°11.66 2°46.49 241.2 14.9 239.2 10.8
2002-03-28 08:20:15 51°11.65 2°46.461 240.8 14.9 239.4 10.8
2002-03-28 08:20:20 51°11.639 2°46.433 241 14.9 239.2 10.8
2002-03-28 08:20:24 51°11.631 2°46.41 241.3 14.9 239.5 10.8
2002-03-28 08:20:30 51°11.618 2°46.377 241.5 14.9 239.1 10.8
2002-03-28 08:20:35 51°11.608 2°46.348 241.2 14.9 239.9 10.7
2002-03-28 08:20:40 51°11.597 2°46.32 241.2 14.9 239.3 10.7
2002-03-28 08:20:45 51°11.587 2°46.292 241.5 14.9 239.4 10.7
2002-03-28 08:20:50 51°11.576 2°46.263 241 14.9 239.2 10.7
2002-03-28 08:20:55 51°11.565 2°46.235 241 14.9 239 10.7
2002-03-28 08:21:00 51°11.555 2°46.208 240.7 14.8 238.9 10.6
2002-03-28 08:21:05 51°11.544 2°46.18 240.5 14.8 238.9 10.5
2002-03-28 08:21:10 51°11.534 2°46.152 240.7 14.8 238.8 10.5
2002-03-28 08:21:15 51°11.523 2°46.124 240.7 14.8 238.9 10.5
2002-03-28 08:21:20 51°11.513 2°46.096 240.7 14.7 238.8 10.5
2002-03-28 08:21:25 51°11.502 2°46.068 240.7 14.7 238.8 10.4
2002-03-28 08:21:31 51°11.49 2°46.035 241.3 14.7 239.2 10.2
2002-03-28 08:21:35 51°11.481 2°46.013 240.8 14.7 238.9 10.4
2002-03-28 08:21:41 51°11.469 2°45.98 240.2 14.7 238.5 10.3
2002-03-28 08:21:45 51°11.46 2°45.957 240.5 14.7 238.6 10.3
2002-03-28 08:21:51 51°11.447 2°45.925 240.5 14.6 238.8 10.2
2002-03-28 08:21:55 51°11.439 2°45.903 240.7 14.6 238.5 10.2
2002-03-28 08:22:00 51°11.429 2°45.875 240.8 14.6 238.7 10.2
2002-03-28 08:22:05 51°11.418 2°45.848 241.2 14.6 239.1 10.1
2002-03-28 08:22:10 51°11.408 2°45.82 241 14.5 239.1 10.1
2002-03-28 08:22:15 51°11.397 2°45.793 240.7 14.6 238.9 10.1
2002-03-28 08:22:20 51°11.387 2°45.765 240.5 14.6 238.9 10.1